Time;durP1;ratioP1;P1;durP2;ratioP2;P2;SDS_P1;SDS_P2;PMS_P1;PMS_P2;Temp;Humidity;BMP_temperature;BMP_pressure;BME280_temperature;BME280_humidity;BME280_pressure;Samples;Min_cycle;Max_cycle;Signal;HPM_P1;HPM_P2
2023/08/25 00:02:15;;;;;;;23.35;15.07;;;;;;;17.83;nan;100880.88;5026448;28;20460;-77
2023/08/25 00:04:42;;;;;;;19.30;13.73;;;;;;;17.82;nan;100892.34;5020706;28;20025;-76
2023/08/25 00:07:07;;;;;;;19.23;14.13;;;;;;;17.78;nan;100894.28;5023424;28;20100;-76
2023/08/25 00:09:32;;;;;;;19.90;14.52;;;;;;;17.81;nan;100895.91;5020231;28;20417;-77
2023/08/25 00:11:57;;;;;;;17.95;13.85;;;;;;;17.77;nan;100893.44;5020687;28;20056;-76
2023/08/25 00:14:23;;;;;;;21.85;14.43;;;;;;;17.82;nan;100901.13;5027256;28;20032;-76
2023/08/25 00:16:49;;;;;;;21.00;14.77;;;;;;;17.82;nan;100903.78;5020281;28;20101;-77
2023/08/25 00:19:17;;;;;;;19.23;13.02;;;;;;;17.82;nan;100900.25;5026370;28;20156;-76
2023/08/25 00:21:42;;;;;;;19.27;15.48;;;;;;;17.80;nan;100902.97;5020599;28;20366;-76
2023/08/25 00:24:07;;;;;;;20.45;15.05;;;;;;;17.81;nan;100907.31;5019637;28;20083;-76
2023/08/25 00:26:33;;;;;;;16.02;13.93;;;;;;;17.80;nan;100910.91;5024848;28;20051;-76
2023/08/25 00:28:58;;;;;;;17.55;14.07;;;;;;;17.67;nan;100891.34;5019652;28;20421;-76
2023/08/25 00:31:23;;;;;;;15.90;13.70;;;;;;;17.76;nan;100912.84;5023793;28;20049;-76
2023/08/25 00:33:50;;;;;;;17.58;13.90;;;;;;;17.72;nan;100903.38;5021432;28;20026;-76
2023/08/25 00:36:16;;;;;;;18.48;14.90;;;;;;;17.67;nan;100901.88;5021864;28;20088;-76
2023/08/25 00:38:41;;;;;;;18.45;14.10;;;;;;;17.68;nan;100907.06;5023600;28;20080;-76
2023/08/25 00:41:06;;;;;;;18.38;14.75;;;;;;;17.66;nan;100906.31;5017919;28;20021;-76
2023/08/25 00:43:33;;;;;;;21.10;15.45;;;;;;;17.62;nan;100904.75;5020643;28;20036;-76
2023/08/25 00:45:59;;;;;;;21.95;15.10;;;;;;;17.60;nan;100905.78;5021324;28;20032;-76
2023/08/25 00:48:25;;;;;;;22.15;15.00;;;;;;;17.62;nan;100915.28;5022082;28;20049;-76
2023/08/25 00:50:51;;;;;;;16.35;14.63;;;;;;;17.60;nan;100911.06;5022369;28;20119;-76
2023/08/25 00:53:17;;;;;;;21.27;15.55;;;;;;;17.62;nan;100917.09;5021722;28;20112;-76
2023/08/25 00:55:43;;;;;;;18.10;15.63;;;;;;;17.60;nan;100911.06;5022450;28;20029;-76
2023/08/25 00:58:09;;;;;;;21.20;15.32;;;;;;;17.57;nan;100909.41;5021125;28;20045;-76
2023/08/25 01:00:35;;;;;;;21.02;15.70;;;;;;;17.60;nan;100911.91;5023226;28;20033;-76
2023/08/25 01:03:01;;;;;;;21.38;15.40;;;;;;;17.59;nan;100906.69;5021953;28;20034;-76
2023/08/25 01:05:26;;;;;;;18.42;15.73;;;;;;;17.61;nan;100900.41;5021146;28;20045;-76
2023/08/25 01:07:52;;;;;;;19.95;16.00;;;;;;;17.60;nan;100903.16;5024375;28;20116;-76
2023/08/25 01:10:26;;;;;;;20.70;16.08;;;;;;;17.60;nan;100911.06;5018556;28;20101;-76
2023/08/25 01:13:04;;;;;;;22.52;17.20;;;;;;;17.56;nan;100891.91;5023235;28;20021;-76
2023/08/25 01:15:33;;;;;;;20.80;16.02;;;;;;;17.66;nan;100902.84;5022127;28;20040;-76
2023/08/25 01:18:12;;;;;;;20.38;16.00;;;;;;;17.64;nan;100899.41;5022157;28;20101;-76
2023/08/25 01:20:39;;;;;;;22.95;15.85;;;;;;;17.66;nan;100895.78;5020256;28;20076;-76
2023/08/25 01:23:24;;;;;;;20.48;15.50;;;;;;;17.66;nan;100898.41;5022319;28;20057;-76
2023/08/25 01:25:51;;;;;;;17.08;14.38;;;;;;;17.62;nan;100896.00;5020452;28;20096;-76
2023/08/25 01:28:20;;;;;;;18.13;15.63;;;;;;;17.60;nan;100892.59;5022265;28;20037;-76
2023/08/25 01:30:46;;;;;;;19.60;15.70;;;;;;;17.60;nan;100895.25;5019770;28;20018;-76
2023/08/25 01:33:12;;;;;;;20.33;16.00;;;;;;;17.63;nan;100890.66;5021783;28;20029;-76
2023/08/25 01:36:02;;;;;;;20.27;15.32;;;;;;;17.62;nan;100891.56;5020789;28;20408;-76
2023/08/25 01:38:38;;;;;;;16.58;14.80;;;;;;;17.58;nan;100883.91;5014520;28;20041;-76
2023/08/25 01:41:41;;;;;;;17.88;15.13;;;;;;;17.62;nan;100885.44;5020789;28;20109;-76
2023/08/25 01:44:08;;;;;;;20.50;15.85;;;;;;;17.63;nan;100885.38;5023085;28;20148;-76
2023/08/25 01:46:37;;;;;;;18.40;15.40;;;;;;;17.67;nan;100888.72;5026301;28;20366;-76
2023/08/25 01:49:04;;;;;;;18.52;15.57;;;;;;;17.71;nan;100879.69;5024512;28;20033;-76
2023/08/25 01:51:30;;;;;;;18.90;15.80;;;;;;;17.72;nan;100873.47;5024673;28;20420;-75
2023/08/25 01:53:56;;;;;;;20.38;15.05;;;;;;;17.75;nan;100875.97;5025892;28;20032;-76
2023/08/25 01:56:22;;;;;;;16.40;14.57;;;;;;;17.82;nan;100880.03;5023850;28;20179;-76
2023/08/25 01:58:49;;;;;;;17.15;15.02;;;;;;;17.86;nan;100872.81;5025690;28;20021;-76
2023/08/25 02:01:14;;;;;;;21.80;15.27;;;;;;;17.87;nan;100872.72;5023982;28;20029;-76
2023/08/25 02:03:39;;;;;;;17.90;15.25;;;;;;;17.85;nan;100866.66;5025976;28;20021;-76
2023/08/25 02:06:05;;;;;;;18.77;15.25;;;;;;;17.94;nan;100874.09;5023839;28;20082;-76
2023/08/25 02:08:30;;;;;;;17.00;14.35;;;;;;;17.95;nan;100861.75;5024432;28;20393;-76
2023/08/25 02:10:55;;;;;;;18.02;15.40;;;;;;;17.96;nan;100864.31;5026242;28;20065;-76
2023/08/25 02:13:21;;;;;;;19.13;14.52;;;;;;;17.92;nan;100854.88;5024144;28;20049;-76
2023/08/25 02:15:48;;;;;;;17.25;15.13;;;;;;;17.91;nan;100853.16;5023310;28;20033;-76
2023/08/25 02:18:14;;;;;;;18.13;14.57;;;;;;;17.95;nan;100849.44;5025401;28;20032;-76
2023/08/25 02:20:39;;;;;;;18.00;14.27;;;;;;;18.05;nan;100860.34;5022031;28;20022;-76
2023/08/25 02:23:05;;;;;;;16.48;14.75;;;;;;;18.07;nan;100854.97;5023981;28;20148;-76
2023/08/25 02:25:31;;;;;;;19.98;15.57;;;;;;;18.07;nan;100853.16;5019748;28;20056;-76
2023/08/25 02:27:56;;;;;;;18.88;15.60;;;;;;;18.12;nan;100858.22;5024670;28;20083;-76
2023/08/25 02:30:22;;;;;;;20.02;15.50;;;;;;;18.13;nan;100855.47;5024011;28;20032;-76
2023/08/25 02:32:47;;;;;;;20.02;15.88;;;;;;;18.15;nan;100853.63;5023648;28;20113;-76
2023/08/25 02:35:13;;;;;;;21.52;17.05;;;;;;;18.15;nan;100839.59;5024234;28;20029;-76
2023/08/25 02:37:55;;;;;;;18.85;16.92;;;;;;;18.16;nan;100841.28;5023283;28;20363;-76
2023/08/25 02:40:20;;;;;;;22.95;19.02;;;;;;;18.10;nan;100828.41;5007787;28;20064;-76
2023/08/25 02:42:46;;;;;;;19.40;17.38;;;;;;;18.13;nan;100820.34;5022240;28;20022;-76
2023/08/25 02:45:11;;;;;;;21.00;17.17;;;;;;;18.21;nan;100828.66;5024897;28;20499;-76
2023/08/25 02:47:36;;;;;;;21.77;18.55;;;;;;;18.21;nan;100828.66;5015844;28;20053;-76
2023/08/25 02:50:03;;;;;;;23.90;18.75;;;;;;;18.21;nan;100823.38;5023618;28;20033;-76
2023/08/25 02:52:28;;;;;;;25.33;19.60;;;;;;;18.17;nan;100814.78;5026720;28;20029;-76
2023/08/25 02:54:53;;;;;;;21.40;17.23;;;;;;;18.23;nan;100814.47;5021279;28;20033;-76
2023/08/25 02:57:19;;;;;;;20.58;18.38;;;;;;;18.23;nan;100811.81;5023468;28;20026;-76
2023/08/25 02:59:44;;;;;;;22.33;18.65;;;;;;;18.25;nan;100809.09;5026614;28;20461;-76
2023/08/25 03:02:09;;;;;;;24.25;19.40;;;;;;;18.27;nan;100803.72;5020567;28;20029;-76
2023/08/25 03:04:35;;;;;;;24.23;19.08;;;;;;;18.22;nan;100796.09;5021665;28;20018;-76
2023/08/25 03:07:00;;;;;;;22.95;19.08;;;;;;;18.14;nan;100777.19;5021858;28;20457;-76
2023/08/25 03:09:26;;;;;;;22.77;19.98;;;;;;;18.28;nan;100798.38;5023177;28;20446;-76
2023/08/25 03:11:51;;;;;;;22.73;20.08;;;;;;;18.27;nan;100788.75;5022147;28;20029;-76
2023/08/25 03:14:18;;;;;;;25.30;19.73;;;;;;;18.30;nan;100801.75;5017276;28;20072;-76
2023/08/25 03:16:43;;;;;;;26.38;21.05;;;;;;;18.31;nan;100795.56;5025639;28;20053;-76
2023/08/25 03:19:09;;;;;;;29.02;21.77;;;;;;;18.32;nan;100794.63;5020437;28;20061;-76
2023/08/25 03:21:34;;;;;;;28.48;22.58;;;;;;;18.29;nan;100781.59;5026441;28;20546;-76
2023/08/25 03:24:00;;;;;;;25.83;21.40;;;;;;;18.33;nan;100783.13;5020521;28;20049;-76
2023/08/25 03:26:26;;;;;;;25.35;20.55;;;;;;;18.30;nan;100769.25;5026003;28;20032;-76
2023/08/25 03:28:52;;;;;;;25.80;21.00;;;;;;;18.33;nan;100780.47;5013315;28;20045;-76
2023/08/25 03:31:17;;;;;;;30.48;22.42;;;;;;;18.35;nan;100773.34;5018114;28;20116;-76
2023/08/25 03:33:42;;;;;;;29.23;23.40;;;;;;;18.36;nan;100776.81;5016806;28;20094;-76
2023/08/25 03:36:08;;;;;;;30.83;23.83;;;;;;;18.35;nan;100772.50;5022196;28;20037;-77
2023/08/25 03:38:33;;;;;;;27.05;23.05;;;;;;;18.34;nan;100771.63;5023481;28;20052;-76
2023/08/25 03:41:00;;;;;;;31.27;23.70;;;;;;;18.35;nan;100765.41;5020349;28;20569;-77
2023/08/25 03:43:25;;;;;;;32.67;24.65;;;;;;;18.38;nan;100767.03;5019575;28;20108;-76
2023/08/25 03:45:51;;;;;;;28.55;23.50;;;;;;;18.37;nan;100760.88;5021646;28;20115;-76
2023/08/25 03:48:16;;;;;;;30.92;24.08;;;;;;;18.34;nan;100758.41;5021433;28;20385;-76
2023/08/25 03:50:46;;;;;;;29.42;23.45;;;;;;;18.37;nan;100765.31;5019627;28;20039;-76
2023/08/25 03:53:12;;;;;;;28.02;23.08;;;;;;;18.35;nan;100754.03;5021151;28;20029;-76
2023/08/25 03:55:37;;;;;;;33.25;22.52;;;;;;;18.35;nan;100760.16;5023586;28;20469;-76
2023/08/25 03:58:02;;;;;;;27.77;22.52;;;;;;;18.33;nan;100753.25;5021807;28;20025;-76
2023/08/25 04:00:28;;;;;;;30.45;22.45;;;;;;;18.35;nan;100762.78;5014609;28;20029;-76
2023/08/25 04:02:53;;;;;;;31.92;23.15;;;;;;;18.35;nan;100757.50;5020741;28;20028;-76
2023/08/25 04:05:18;;;;;;;29.50;24.25;;;;;;;18.32;nan;100760.31;5019543;28;20550;-77
2023/08/25 04:07:44;;;;;;;30.65;23.08;;;;;;;18.33;nan;100755.88;5024049;28;20033;-76
2023/08/25 04:10:09;;;;;;;27.95;22.27;;;;;;;18.33;nan;100759.38;5021231;28;20030;-76
2023/08/25 04:12:34;;;;;;;31.52;22.20;;;;;;;18.34;nan;100755.78;5028107;28;20032;-76
2023/08/25 04:15:00;;;;;;;25.90;21.25;;;;;;;18.34;nan;100755.78;5020467;28;20440;-76
2023/08/25 04:17:25;;;;;;;29.23;21.13;;;;;;;18.33;nan;100756.72;5020034;28;20030;-76
2023/08/25 04:19:50;;;;;;;28.98;21.42;;;;;;;18.21;nan;100733.69;5019828;28;20029;-76
2023/08/25 04:22:16;;;;;;;25.52;20.52;;;;;;;18.27;nan;100749.16;5019864;28;20022;-76
2023/08/25 04:24:42;;;;;;;26.02;21.02;;;;;;;18.25;nan;100748.41;5026306;28;20473;-76
2023/08/25 04:27:07;;;;;;;27.50;21.65;;;;;;;18.24;nan;100750.19;5019507;28;20489;-76
2023/08/25 04:29:32;;;;;;;27.05;22.70;;;;;;;18.19;nan;100751.41;5021687;28;20022;-76
2023/08/25 04:31:58;;;;;;;27.95;22.25;;;;;;;18.18;nan;100753.19;5023541;28;20022;-76
2023/08/25 04:34:23;;;;;;;27.20;22.15;;;;;;;18.15;nan;100745.44;5023083;28;20083;-76
2023/08/25 04:36:48;;;;;;;26.35;21.65;;;;;;;18.11;nan;100738.63;5021784;28;20457;-76
2023/08/25 04:39:14;;;;;;;34.35;22.77;;;;;;;18.11;nan;100753.59;5019239;28;20044;-76
2023/08/25 04:41:40;;;;;;;25.75;22.17;;;;;;;18.12;nan;100755.31;5022346;28;20075;-76
2023/08/25 04:44:06;;;;;;;27.83;22.33;;;;;;;18.05;nan;100748.66;5021300;28;20389;-76
2023/08/25 04:46:31;;;;;;;28.15;22.90;;;;;;;18.09;nan;100751.06;5022811;28;20025;-76
2023/08/25 04:48:57;;;;;;;27.15;21.90;;;;;;;18.13;nan;100741.19;5020869;28;20032;-76
2023/08/25 04:51:22;;;;;;;30.17;22.48;;;;;;;18.21;nan;100746.88;5022910;28;20060;-76
2023/08/25 04:53:47;;;;;;;26.48;22.40;;;;;;;18.22;nan;100746.78;5022157;28;20033;-76
2023/08/25 04:56:12;;;;;;;32.47;22.70;;;;;;;18.25;nan;100745.78;5020883;28;20079;-76
2023/08/25 04:58:38;;;;;;;24.90;22.17;;;;;;;18.23;nan;100739.72;5021733;28;20105;-76
2023/08/25 05:01:04;;;;;;;28.42;22.65;;;;;;;18.26;nan;100739.56;5016218;28;20030;-76
2023/08/25 05:03:29;;;;;;;32.05;22.83;;;;;;;18.28;nan;100736.81;5018481;28;20116;-76
2023/08/25 05:05:54;;;;;;;25.42;21.63;;;;;;;18.29;nan;100728.81;5015804;28;20041;-76
2023/08/25 05:08:20;;;;;;;26.52;21.38;;;;;;;18.29;nan;100718.28;5011411;28;20053;-76
2023/08/25 05:10:45;;;;;;;27.85;22.05;;;;;;;18.27;nan;100716.66;5023309;28;20469;-76
2023/08/25 05:13:10;;;;;;;30.58;22.05;;;;;;;18.23;nan;100723.91;5019296;28;20026;-76
2023/08/25 05:15:35;;;;;;;24.77;21.27;;;;;;;18.28;nan;100728.91;5022278;28;20125;-76
2023/08/25 05:18:01;;;;;;;27.10;22.83;;;;;;;18.28;nan;100726.25;5018472;28;20027;-76
2023/08/25 05:20:27;;;;;;;27.65;21.73;;;;;;;18.31;nan;100729.59;5023176;28;20524;-76
2023/08/25 05:22:52;;;;;;;25.75;21.30;;;;;;;18.28;nan;100724.50;5027438;28;20037;-76
2023/08/25 05:25:20;;;;;;;27.42;21.95;;;;;;;18.26;nan;100731.63;5025108;28;20389;-76
2023/08/25 05:27:47;;;;;;;26.10;20.00;;;;;;;18.29;nan;100734.09;5025555;28;20109;-76
2023/08/25 05:30:12;;;;;;;27.58;20.85;;;;;;;18.34;nan;100745.22;5025124;28;20040;-76
2023/08/25 05:32:37;;;;;;;24.70;20.17;;;;;;;18.45;nan;100750.75;5023748;28;20030;-76
2023/08/25 05:35:03;;;;;;;26.42;19.58;;;;;;;18.58;nan;100745.63;5026842;28;20021;-76
2023/08/25 05:37:29;;;;;;;26.08;15.93;;;;;;;18.64;nan;100723.28;5021971;28;20053;-76
2023/08/25 05:39:55;;;;;;;17.70;13.25;;;;;;;18.73;nan;100728.03;5029657;28;20155;-76
2023/08/25 05:42:20;;;;;;;18.63;12.43;;;;;;;18.81;nan;100728.44;5023213;28;20033;-76
2023/08/25 05:44:45;;;;;;;14.77;12.38;;;;;;;18.85;nan;100722.03;5028716;28;20077;-76
2023/08/25 05:47:11;;;;;;;15.32;11.80;;;;;;;18.95;nan;100720.53;5022700;28;20482;-76
2023/08/25 05:49:36;;;;;;;14.50;11.50;;;;;;;19.00;nan;100727.31;5027681;28;20032;-76
2023/08/25 05:52:01;;;;;;;16.13;11.10;;;;;;;18.95;nan;100709.97;5025037;28;20041;-76
2023/08/25 05:54:27;;;;;;;11.63;10.45;;;;;;;18.91;nan;100707.63;5022885;28;20503;-76
2023/08/25 05:56:56;;;;;;;18.48;10.05;;;;;;;18.91;nan;100702.34;5029672;28;20030;-76
2023/08/25 05:59:21;;;;;;;12.82;10.52;;;;;;;18.92;nan;100710.16;5022753;28;20029;-76
2023/08/25 06:01:46;;;;;;;18.75;11.00;;;;;;;18.92;nan;100719.88;5022779;28;20021;-76
2023/08/25 06:04:12;;;;;;;15.68;10.75;;;;;;;18.87;nan;100714.03;5022881;28;20354;-76
2023/08/25 06:06:38;;;;;;;19.00;10.75;;;;;;;18.83;nan;100699.28;5028806;28;20049;-76
2023/08/25 06:09:04;;;;;;;12.50;11.02;;;;;;;18.81;nan;100688.00;5026260;28;20104;-76
2023/08/25 06:11:29;;;;;;;14.50;11.02;;;;;;;18.75;nan;100702.41;5015957;28;20233;-76
2023/08/25 06:13:54;;;;;;;13.40;10.25;;;;;;;18.76;nan;100704.09;5024485;28;20032;-76
2023/08/25 06:16:20;;;;;;;15.35;11.63;;;;;;;18.72;nan;100702.59;5024994;28;20038;-76
2023/08/25 06:18:46;;;;;;;15.98;10.63;;;;;;;18.65;nan;100695.94;5022467;28;20106;-76
2023/08/25 06:21:11;;;;;;;19.90;11.05;;;;;;;18.62;nan;100710.16;5019504;28;20385;-76
2023/08/25 06:23:37;;;;;;;14.73;10.60;;;;;;;18.60;nan;100722.59;5022041;28;20018;-76
2023/08/25 06:26:02;;;;;;;15.18;10.02;;;;;;;18.56;nan;100712.31;5025002;28;20439;-76
2023/08/25 06:28:27;;;;;;;15.35;10.60;;;;;;;18.55;nan;100742.31;5022964;28;20030;-76
2023/08/25 06:30:53;;;;;;;13.20;10.45;;;;;;;18.52;nan;100747.75;5025130;28;20022;-76
2023/08/25 06:33:18;;;;;;;17.50;11.48;;;;;;;18.47;nan;100734.81;5024426;28;20029;-76
2023/08/25 06:35:44;;;;;;;14.73;11.00;;;;;;;18.40;nan;100721.13;5022981;28;20120;-76
2023/08/25 06:38:09;;;;;;;12.68;10.82;;;;;;;18.43;nan;100722.75;5023030;28;20378;-72
2023/08/25 06:40:34;;;;;;;16.02;10.45;;;;;;;18.37;nan;100715.19;5021294;28;20385;-74
2023/08/25 06:43:01;;;;;;;15.73;11.23;;;;;;;18.39;nan;100708.88;5024032;28;20050;-72
2023/08/25 06:45:27;;;;;;;15.63;10.98;;;;;;;18.32;nan;100689.06;5028815;28;20043;-72
2023/08/25 06:47:54;;;;;;;15.30;11.20;;;;;;;18.29;nan;100704.22;5019634;28;20028;-73
2023/08/25 06:50:20;;;;;;;16.15;11.65;;;;;;;18.22;nan;100706.38;5019880;28;20152;-73
2023/08/25 06:52:45;;;;;;;15.88;11.50;;;;;;;18.24;nan;100717.66;5016095;28;20021;-73
2023/08/25 06:55:11;;;;;;;18.63;11.95;;;;;;;18.23;nan;100695.72;5022969;28;20370;-73
2023/08/25 06:57:36;;;;;;;14.48;11.38;;;;;;;18.18;nan;100684.59;5021709;28;20087;-73
2023/08/25 07:00:04;;;;;;;15.82;11.18;;;;;;;18.14;nan;100659.31;5018997;28;20470;-73
2023/08/25 07:02:30;;;;;;;13.93;11.35;;;;;;;18.11;nan;100637.53;5014322;28;20037;-73
2023/08/25 07:04:55;;;;;;;16.33;11.98;;;;;;;18.04;nan;100663.41;5015349;28;20022;-73
2023/08/25 07:07:25;;;;;;;15.57;11.52;;;;;;;18.00;nan;100673.28;5012017;28;20038;-74
2023/08/25 07:09:50;;;;;;;15.02;11.30;;;;;;;17.96;nan;100677.03;5016273;28;20022;-73
2023/08/25 07:12:16;;;;;;;15.18;12.63;;;;;;;17.95;nan;100675.34;5018817;28;20496;-73
2023/08/25 07:14:42;;;;;;;14.52;11.98;;;;;;;17.95;nan;100653.38;5025391;28;20048;-73
2023/08/25 07:17:08;;;;;;;18.40;12.63;;;;;;;17.88;nan;100641.50;5012197;28;20026;-74
2023/08/25 07:19:33;;;;;;;19.35;13.38;;;;;;;17.95;nan;100658.66;5013049;28;20041;-73
2023/08/25 07:21:58;;;;;;;21.40;14.88;;;;;;;17.93;nan;100708.88;5014780;28;20053;-76
2023/08/25 07:24:24;;;;;;;21.92;15.80;;;;;;;17.91;nan;100779.31;5024144;28;20481;-74
2023/08/25 07:26:49;;;;;;;33.60;16.48;;;;;;;17.85;nan;100787.53;5012497;28;20120;-74
2023/08/25 07:29:14;;;;;;;52.03;18.75;;;;;;;17.87;nan;100754.03;5020647;28;20029;-75
2023/08/25 07:31:39;;;;;;;27.50;16.30;;;;;;;17.92;nan;100735.31;5025205;28;20025;-75
2023/08/25 07:34:05;;;;;;;28.40;16.33;;;;;;;17.99;nan;100742.81;5022940;28;20481;-75
2023/08/25 07:36:30;;;;;;;43.90;19.35;;;;;;;18.04;nan;100749.63;5023009;28;20064;-75
2023/08/25 07:38:55;;;;;;;41.63;19.20;;;;;;;18.15;nan;100739.31;5021209;28;20030;-76
2023/08/25 07:41:21;;;;;;;27.75;18.27;;;;;;;18.13;nan;100735.91;5023477;28;20029;-75
2023/08/25 07:43:48;;;;;;;30.60;18.30;;;;;;;18.13;nan;100742.03;5017514;28;20026;-76
2023/08/25 07:46:14;;;;;;;34.05;18.30;;;;;;;18.21;nan;100749.50;5009062;28;20030;-75
2023/08/25 07:48:39;;;;;;;30.00;18.75;;;;;;;18.16;nan;100751.56;5008603;28;20033;-76
2023/08/25 07:51:04;;;;;;;27.48;17.13;;;;;;;18.06;nan;100763.59;5021495;28;20426;-75
2023/08/25 07:53:31;;;;;;;24.48;17.23;;;;;;;18.09;nan;100747.59;5020041;28;20029;-75
2023/08/25 07:55:57;;;;;;;33.33;18.42;;;;;;;18.10;nan;100746.63;5025351;28;20037;-75
2023/08/25 07:58:22;;;;;;;31.10;18.65;;;;;;;18.18;nan;100747.03;5025731;28;20476;-75
2023/08/25 08:00:49;;;;;;;31.52;18.40;;;;;;;18.22;nan;100738.03;5023785;28;20053;-74
2023/08/25 08:03:15;;;;;;;26.08;17.67;;;;;;;18.16;nan;100735.75;5019813;28;20030;-74
2023/08/25 08:05:41;;;;;;;26.92;17.40;;;;;;;18.16;nan;100748.94;5023075;28;20036;-74
2023/08/25 08:08:09;;;;;;;31.77;18.73;;;;;;;18.08;nan;100764.31;5019234;28;20047;-73
2023/08/25 08:10:38;;;;;;;24.88;16.77;;;;;;;18.09;nan;100763.41;5018194;28;20026;-74
2023/08/25 08:13:03;;;;;;;22.73;16.98;;;;;;;18.09;nan;100758.13;5020010;28;20030;-72
2023/08/25 08:15:30;;;;;;;29.48;18.67;;;;;;;18.15;nan;100760.44;5015590;28;20087;-73
2023/08/25 08:17:55;;;;;;;29.27;17.77;;;;;;;18.10;nan;100757.19;5004479;28;20469;-75
2023/08/25 08:20:21;;;;;;;25.08;17.50;;;;;;;18.14;nan;100753.44;5019947;28;20032;-72
2023/08/25 08:22:46;;;;;;;25.65;18.40;;;;;;;18.14;nan;100730.53;5018664;28;20026;-73
2023/08/25 08:25:13;;;;;;;35.95;19.38;;;;;;;18.11;nan;100727.22;5015751;28;20105;-73
2023/08/25 08:27:40;;;;;;;28.45;19.13;;;;;;;18.01;nan;100725.09;5020691;28;20425;-73
2023/08/25 08:30:06;;;;;;;24.30;19.02;;;;;;;17.97;nan;100736.75;5021952;28;20025;-73
2023/08/25 08:32:35;;;;;;;27.85;18.48;;;;;;;17.88;nan;100726.72;5011716;28;20022;-86
2023/08/25 08:35:00;;;;;;;24.88;18.40;;;;;;;17.93;nan;100722.06;5022621;28;20041;-82
2023/08/25 08:37:25;;;;;;;27.17;18.95;;;;;;;17.86;nan;100749.72;5020415;28;20165;-81
2023/08/25 08:39:51;;;;;;;26.10;19.40;;;;;;;17.83;nan;100756.94;5026221;28;20057;-81
2023/08/25 08:42:17;;;;;;;28.65;19.88;;;;;;;17.84;nan;100762.13;5019314;28;20528;-81
2023/08/25 08:44:47;;;;;;;26.70;19.75;;;;;;;17.85;nan;100761.19;5025933;28;20068;-81
2023/08/25 08:47:14;;;;;;;29.02;21.15;;;;;;;17.82;nan;100748.19;5019027;28;20033;-81
2023/08/25 08:49:40;;;;;;;32.55;21.40;;;;;;;17.84;nan;100751.56;5024939;28;20535;-81
2023/08/25 08:52:07;;;;;;;30.48;22.20;;;;;;;17.81;nan;100762.28;5025585;28;20036;-82
2023/08/25 08:54:35;;;;;;;30.27;21.50;;;;;;;17.85;nan;100773.50;5023992;28;20676;-81
2023/08/25 08:57:00;;;;;;;37.15;23.35;;;;;;;17.80;nan;100776.41;5032246;28;20429;-82
2023/08/25 08:59:25;;;;;;;33.55;22.50;;;;;;;17.74;nan;100774.06;5018101;28;20530;-82
2023/08/25 09:01:51;;;;;;;34.33;23.08;;;;;;;17.76;nan;100764.31;5029964;28;20087;-82
2023/08/25 09:04:22;;;;;;;35.80;24.40;;;;;;;17.82;nan;100758.72;5022641;28;20078;-83
2023/08/25 09:06:51;;;;;;;32.38;23.00;;;;;;;17.82;nan;100726.22;5024043;28;20025;-87
2023/08/25 09:09:19;;;;;;;35.20;23.30;;;;;;;17.87;nan;100730.31;5028267;28;20108;-88
2023/08/25 09:11:45;;;;;;;40.67;23.90;;;;;;;17.73;nan;100759.19;5023950;28;20378;-89
2023/08/25 09:14:11;;;;;;;48.38;23.90;;;;;;;17.82;nan;100766.66;5027595;28;20025;-89
2023/08/25 09:16:36;;;;;;;42.53;23.92;;;;;;;17.91;nan;100763.47;5024752;28;20481;-86
2023/08/25 09:19:03;;;;;;;49.20;26.10;;;;;;;17.98;nan;100733.22;5027108;28;20037;-90
2023/08/25 09:21:29;;;;;;;45.72;27.02;;;;;;;18.05;nan;100695.91;5024952;28;20029;-90
2023/08/25 09:23:59;;;;;;;43.88;26.98;;;;;;;18.19;nan;100703.91;5017860;28;20097;-89
2023/08/25 09:26:26;;;;;;;50.10;28.15;;;;;;;18.23;nan;100731.81;5026548;28;20033;-90
2023/08/25 09:28:53;;;;;;;52.88;27.88;;;;;;;18.34;nan;100734.66;5023565;28;20165;-90
2023/08/25 09:31:23;;;;;;;48.70;26.75;;;;;;;18.49;nan;100760.19;5028539;28;20026;-87
2023/08/25 09:33:50;;;;;;;40.95;26.35;;;;;;;18.43;nan;100762.34;5018251;28;20099;-87
2023/08/25 09:36:16;;;;;;;39.28;25.40;;;;;;;18.39;nan;100756.38;5025154;28;20044;-86
2023/08/25 09:38:46;;;;;;;36.15;24.55;;;;;;;18.32;nan;100767.38;5024510;28;20037;-86
2023/08/25 09:41:14;;;;;;;33.95;24.38;;;;;;;18.26;nan;100752.75;5014398;28;20071;-85
2023/08/25 09:43:39;;;;;;;38.15;24.83;;;;;;;18.26;nan;100739.56;5025434;28;20420;-84
2023/08/25 09:46:08;;;;;;;41.88;26.00;;;;;;;18.38;nan;100736.22;5025295;28;20477;-84
2023/08/25 09:48:35;;;;;;;44.88;27.95;;;;;;;18.45;nan;100753.41;5026128;28;20491;-83
2023/08/25 09:51:01;;;;;;;43.97;28.40;;;;;;;18.73;nan;100757.09;5023752;28;20021;-83
2023/08/25 09:53:31;;;;;;;44.78;29.38;;;;;;;18.91;nan;100756.00;5018821;28;20029;-83
2023/08/25 09:56:01;;;;;;;44.65;30.73;;;;;;;19.05;nan;100751.69;5027614;28;20029;-83
2023/08/25 09:58:27;;;;;;;34.05;26.00;;;;;;;18.98;nan;100745.94;4999158;28;20034;-81
2023/08/25 10:00:54;;;;;;;35.13;26.52;;;;;;;18.94;nan;100739.13;5022974;28;20476;-82
2023/08/25 10:03:20;;;;;;;34.75;26.05;;;;;;;19.06;nan;100738.38;5019698;28;20437;-83
2023/08/25 10:05:46;;;;;;;36.60;26.58;;;;;;;19.18;nan;100742.91;5022329;28;20053;-82
2023/08/25 10:08:11;;;;;;;39.53;28.00;;;;;;;19.41;nan;100744.16;5017176;28;20034;-81
2023/08/25 10:10:38;;;;;;;37.78;28.35;;;;;;;19.63;nan;100753.41;5019367;28;20029;-80
2023/08/25 10:13:07;;;;;;;34.33;25.10;;;;;;;19.76;nan;100748.22;5020309;28;20029;-81
2023/08/25 10:15:33;;;;;;;31.52;25.77;;;;;;;19.99;nan;100741.47;5017075;28;20136;-81
2023/08/25 10:18:06;;;;;;;29.15;23.95;;;;;;;19.94;nan;100754.97;5014256;28;20022;-81
2023/08/25 10:20:33;;;;;;;24.58;21.75;;;;;;;19.88;nan;100764.16;5014559;28;20030;-80
2023/08/25 10:23:00;;;;;;;25.50;22.35;;;;;;;19.91;nan;100743.75;5015837;28;20026;-80
2023/08/25 10:25:29;;;;;;;27.77;22.63;;;;;;;19.85;nan;100742.34;5020962;28;20034;-80
2023/08/25 10:27:56;;;;;;;25.88;22.35;;;;;;;19.81;nan;100740.84;5015799;28;20365;-80
2023/08/25 10:30:22;;;;;;;27.38;23.23;;;;;;;19.89;nan;100738.56;5020707;28;20026;-81
2023/08/25 10:33:11;;;;;;;24.63;22.00;;;;;;;20.06;nan;100750.69;5015787;28;20489;-80
2023/08/25 10:35:47;;;;;;;24.63;21.27;;;;;;;19.84;nan;100757.34;5012175;28;20046;-74
2023/08/25 10:38:18;;;;;;;24.02;21.48;;;;;;;19.72;nan;100760.81;5017360;28;20032;-73
2023/08/25 10:40:51;;;;;;;25.63;21.92;;;;;;;19.50;nan;100752.47;5021558;28;20025;-74
2023/08/25 10:43:29;;;;;;;26.67;22.10;;;;;;;19.32;nan;100768.50;5019977;28;20374;-73
2023/08/25 10:45:54;;;;;;;25.95;21.85;;;;;;;19.14;nan;100774.91;5014308;28;20091;-74
2023/08/25 10:48:21;;;;;;;27.67;23.00;;;;;;;19.06;nan;100775.38;5020394;28;20471;-73
2023/08/25 10:50:47;;;;;;;27.17;22.80;;;;;;;19.02;nan;100767.72;5020376;28;20042;-72
2023/08/25 10:53:36;;;;;;;30.48;24.48;;;;;;;18.98;nan;100772.34;5015652;28;20025;-72
2023/08/25 10:56:17;;;;;;;34.60;26.58;;;;;;;18.98;nan;100761.78;5022413;28;20036;-72
2023/08/25 10:58:54;;;;;;;29.40;25.73;;;;;;;18.93;nan;100761.19;5024316;28;20060;-76
2023/08/25 11:01:23;;;;;;;36.47;26.70;;;;;;;18.96;nan;100758.38;5021212;28;20389;-72
2023/08/25 11:04:10;;;;;;;34.60;26.73;;;;;;;18.97;nan;100757.44;5020541;28;20033;-72
2023/08/25 11:06:43;;;;;;;36.85;27.20;;;;;;;19.06;nan;100750.75;5015682;28;20026;-72
2023/08/25 11:09:30;;;;;;;38.80;28.60;;;;;;;19.08;nan;100755.00;5012575;28;20030;-72
2023/08/25 11:12:06;;;;;;;40.45;30.48;;;;;;;19.21;nan;100755.09;5019991;28;20034;-72
2023/08/25 11:14:39;;;;;;;38.42;29.80;;;;;;;19.28;nan;100740.56;5021511;28;20083;-72
2023/08/25 11:17:07;;;;;;;41.70;29.30;;;;;;;19.45;nan;100750.09;5010762;28;20049;-73
2023/08/25 11:19:35;;;;;;;45.22;30.55;;;;;;;19.67;nan;100749.66;5026895;28;20033;-73
2023/08/25 11:22:05;;;;;;;43.42;30.75;;;;;;;19.98;nan;100750.31;5020804;28;20034;-73
2023/08/25 11:24:32;;;;;;;40.13;29.77;;;;;;;20.20;nan;100750.66;5027091;28;20040;-73